Time;durP1;ratioP1;P1;durP2;ratioP2;P2;SDS_P1;SDS_P2;PMS_P1;PMS_P2;Temp;Humidity;BMP_temperature;BMP_pressure;BME280_temperature;BME280_humidity;BME280_pressure;Samples;Min_cycle;Max_cycle;Signal;HPM_P1;HPM_P2
2021/03/20 00:01:06;;;;;;;2.10;2.00;;;;;;;1.78;73.06;102430.19;5341443;26;20042;-74
2021/03/20 00:03:32;;;;;;;2.10;2.00;;;;;;;1.59;73.57;102410.97;5337490;26;20050;-75
2021/03/20 00:05:58;;;;;;;2.10;2.00;;;;;;;1.66;73.44;102426.56;5339780;26;20081;-74
2021/03/20 00:08:23;;;;;;;1.92;1.90;;;;;;;1.55;74.32;102435.06;5338946;26;20720;-74
2021/03/20 00:10:50;;;;;;;2.00;1.90;;;;;;;1.44;74.47;102435.75;5339571;26;20047;-74
2021/03/20 00:13:16;;;;;;;2.10;2.00;;;;;;;1.31;74.47;102429.56;5337721;26;20572;-74
2021/03/20 00:15:42;;;;;;;1.95;1.85;;;;;;;1.07;74.58;102417.16;5338226;26;20031;-74
2021/03/20 00:18:07;;;;;;;1.80;1.80;;;;;;;1.21;74.74;102441.47;5337998;26;20317;-74
2021/03/20 00:20:36;;;;;;;2.00;1.90;;;;;;;0.95;75.15;102405.75;5337152;26;20047;-73
2021/03/20 00:23:02;;;;;;;2.10;2.00;;;;;;;1.07;74.65;102438.69;5339886;26;20118;-75
2021/03/20 00:25:27;;;;;;;2.10;2.00;;;;;;;0.52;74.85;102362.88;5336656;26;20675;-74
2021/03/20 00:27:52;;;;;;;1.85;1.85;;;;;;;1.10;75.25;102427.50;5339147;26;20644;-75
2021/03/20 00:30:18;;;;;;;2.00;1.90;;;;;;;0.87;74.40;102380.66;5338786;26;20093;-72
2021/03/20 00:32:44;;;;;;;1.85;1.85;;;;;;;0.73;75.44;102370.09;5337320;26;20140;-72
2021/03/20 00:35:10;;;;;;;1.87;1.85;;;;;;;1.10;75.82;102436.16;5339373;26;20682;-73
2021/03/20 00:37:36;;;;;;;1.70;1.70;;;;;;;1.05;76.32;102440.37;5337979;26;20043;-74
2021/03/20 00:40:02;;;;;;;2.20;2.10;;;;;;;1.07;76.26;102440.41;5337992;26;20061;-73
2021/03/20 00:42:27;;;;;;;4.62;2.85;;;;;;;1.04;75.44;102441.22;5340008;26;20073;-74
2021/03/20 00:44:53;;;;;;;1.87;1.87;;;;;;;0.19;75.76;102312.41;5339919;26;20035;-75
2021/03/20 00:47:18;;;;;;;2.00;1.90;;;;;;;1.01;75.75;102441.19;5336560;26;20049;-74
2021/03/20 00:49:43;;;;;;;1.80;1.80;;;;;;;1.05;76.66;102450.72;5339926;26;20038;-74
2021/03/20 00:52:09;;;;;;;1.98;1.95;;;;;;;0.81;76.87;102420.19;5338311;26;20039;-73
2021/03/20 00:54:34;;;;;;;1.75;1.75;;;;;;;0.54;76.80;102387.91;5339945;26;20038;-74
2021/03/20 00:56:59;;;;;;;2.15;2.05;;;;;;;0.48;77.29;102392.97;5339284;26;20084;-74
2021/03/20 00:59:25;;;;;;;2.00;1.90;;;;;;;0.72;77.15;102462.28;5358068;26;20621;-74
2021/03/20 01:01:50;;;;;;;2.10;2.00;;;;;;;0.70;77.11;102466.53;5338922;26;20064;-74
2021/03/20 01:04:16;;;;;;;1.70;1.70;;;;;;;0.70;77.62;102468.22;5359592;26;20169;-73
2021/03/20 01:06:41;;;;;;;1.80;1.80;;;;;;;0.69;76.97;102467.37;5377615;26;20035;-72
2021/03/20 01:09:07;;;;;;;1.67;1.67;;;;;;;0.74;77.52;102465.75;5377970;26;20389;-75
2021/03/20 01:11:32;;;;;;;2.45;2.35;;;;;;;0.79;77.92;102474.44;5377741;26;20176;-75
2021/03/20 01:13:57;;;;;;;1.90;1.90;;;;;;;0.36;77.14;102408.22;5378467;26;20116;-75
2021/03/20 01:16:23;;;;;;;3.17;3.08;;;;;;;-0.69;77.51;102230.00;5375427;26;20046;-74
2021/03/20 01:18:49;;;;;;;1.80;1.80;;;;;;;0.70;77.39;102481.16;5363309;26;20486;-74
2021/03/20 01:21:14;;;;;;;1.92;1.83;;;;;;;0.72;78.09;102475.19;5362820;26;20030;-73
2021/03/20 01:23:39;;;;;;;1.90;1.80;;;;;;;0.84;76.96;102476.22;5362019;26;20031;-74
2021/03/20 01:26:05;;;;;;;1.65;1.65;;;;;;;0.91;77.19;102478.94;5363586;26;20794;-75
2021/03/20 01:28:31;;;;;;;1.73;1.73;;;;;;;0.86;76.35;102464.19;5360370;26;20046;-74
2021/03/20 01:30:57;;;;;;;1.80;1.80;;;;;;;0.96;76.80;102485.06;5364944;26;20046;-74
2021/03/20 01:33:22;;;;;;;1.87;1.83;;;;;;;0.92;76.32;102483.28;5362355;26;20039;-75
2021/03/20 01:35:48;;;;;;;2.00;1.90;;;;;;;0.86;76.52;102490.91;5361296;26;20057;-74
2021/03/20 01:38:13;;;;;;;1.75;1.75;;;;;;;0.78;76.76;102490.78;5361280;26;20646;-73
2021/03/20 01:40:45;;;;;;;2.00;1.90;;;;;;;0.24;76.96;102414.06;5362270;26;20742;-73
2021/03/20 01:43:15;;;;;;;1.60;1.60;;;;;;;0.60;77.08;102505.94;5361586;26;20118;-74
2021/03/20 01:45:41;;;;;;;1.70;1.70;;;;;;;0.59;76.83;102496.47;5363650;26;20034;-74
2021/03/20 01:48:24;;;;;;;2.00;1.90;;;;;;;0.56;77.08;102499.00;5361554;26;20030;-75
2021/03/20 01:50:59;;;;;;;;;;;;;;;0.59;77.12;102497.34;5363903;26;20102;-74
2021/03/20 01:54:07;;;;;;;1.80;1.80;;;;;;;0.38;77.67;102447.88;5367184;26;20041;-75
2021/03/20 01:56:36;;;;;;;1.83;1.80;;;;;;;0.68;76.89;102483.72;5353523;26;20061;-74
2021/03/20 01:59:01;;;;;;;2.10;2.00;;;;;;;0.68;77.47;102480.25;5340122;26;20043;-74
2021/03/20 02:01:29;;;;;;;2.20;2.10;;;;;;;0.56;77.40;102452.50;5340819;26;20045;-74
2021/03/20 02:03:54;;;;;;;1.80;1.80;;;;;;;0.70;77.89;102473.41;5339664;26;20034;-74
2021/03/20 02:06:20;;;;;;;2.37;2.17;;;;;;;0.57;77.80;102456.81;5341504;26;20043;-75
2021/03/20 02:08:46;;;;;;;2.20;2.10;;;;;;;0.58;77.85;102463.72;5339352;26;20073;-75
2021/03/20 02:11:26;;;;;;;1.80;1.80;;;;;;;0.53;77.26;102466.22;5340961;26;20059;-74
2021/03/20 02:13:57;;;;;;;2.60;2.50;;;;;;;0.46;77.12;102463.50;5340173;26;20047;-75
2021/03/20 02:16:28;;;;;;;1.70;1.70;;;;;;;0.32;78.12;102458.97;5377246;26;20184;-74
2021/03/20 02:19:01;;;;;;;2.45;2.35;;;;;;;0.13;78.67;102443.97;5337339;26;20056;-74
2021/03/20 02:21:30;;;;;;;1.60;1.60;;;;;;;0.21;78.25;102464.78;5360567;26;20057;-74
2021/03/20 02:24:29;;;;;;;1.85;1.85;;;;;;;-0.29;79.06;102406.16;5339798;26;20045;-74
2021/03/20 02:27:20;;;;;;;1.90;1.87;;;;;;;-0.02;78.76;102484.13;5361669;26;20046;-73
2021/03/20 02:30:03;;;;;;;1.80;1.80;;;;;;;-0.15;78.29;102474.37;5357106;26;20857;-73
2021/03/20 02:32:34;;;;;;;1.80;1.80;;;;;;;-0.25;78.98;102472.47;5357921;26;20031;-75
2021/03/20 02:35:38;;;;;;;2.00;1.90;;;;;;;-0.35;79.24;102467.94;5377144;26;20047;-74
2021/03/20 02:38:03;;;;;;;;;;;;;;;-0.38;79.86;102473.03;5377178;26;20789;-74
2021/03/20 02:41:10;;;;;;;1.60;1.60;;;;;;;-0.72;79.19;102419.03;5377449;26;20037;-73
2021/03/20 02:43:54;;;;;;;2.40;2.30;;;;;;;-0.42;79.58;102457.50;5350903;26;20133;-73
2021/03/20 02:46:26;;;;;;;1.60;1.60;;;;;;;-0.35;80.01;102465.38;5362286;26;20638;-74
2021/03/20 02:48:57;;;;;;;1.70;1.70;;;;;;;-0.28;78.64;102477.53;5377810;26;20564;-74
2021/03/20 02:51:27;;;;;;;1.92;1.90;;;;;;;-1.22;78.36;102295.94;5357668;26;20048;-74
2021/03/20 02:54:00;;;;;;;1.80;1.80;;;;;;;-0.52;78.91;102416.87;5357779;26;20588;-74
2021/03/20 02:56:28;;;;;;;1.73;1.73;;;;;;;-0.33;78.71;102450.78;5340142;26;20405;-73
2021/03/20 02:58:58;;;;;;;2.22;2.12;;;;;;;-0.38;78.77;102453.28;5339679;26;20046;-74
2021/03/20 03:01:24;;;;;;;1.70;1.70;;;;;;;-0.41;78.79;102453.19;5358414;26;20606;-73
2021/03/20 03:03:49;;;;;;;1.70;1.70;;;;;;;-0.37;78.72;102461.88;5340801;26;20183;-73
2021/03/20 03:06:45;;;;;;;1.80;1.80;;;;;;;-0.35;77.97;102466.22;5338120;26;20051;-71
2021/03/20 03:09:13;;;;;;;4.75;3.10;;;;;;;-0.34;78.13;102465.41;5378296;26;20046;-73
2021/03/20 03:11:40;;;;;;;2.42;2.33;;;;;;;-0.36;78.64;102464.50;5340084;26;20042;-73
2021/03/20 03:14:17;;;;;;;1.77;1.77;;;;;;;-1.08;78.16;102354.66;5357796;26;20043;-74
2021/03/20 03:16:47;;;;;;;2.00;1.90;;;;;;;-0.35;78.00;102483.41;5339090;26;20044;-74
2021/03/20 03:19:17;;;;;;;1.90;1.90;;;;;;;-0.33;78.31;102476.59;5358648;26;20042;-74
2021/03/20 03:21:44;;;;;;;1.77;1.77;;;;;;;-0.21;77.77;102476.84;5362329;26;20095;-73
2021/03/20 03:24:11;;;;;;;1.70;1.70;;;;;;;-0.42;77.32;102436.00;5363004;26;20046;-74
2021/03/20 03:26:40;;;;;;;2.35;2.25;;;;;;;-0.19;77.91;102476.88;5360490;26;20111;-74
2021/03/20 03:29:12;;;;;;;1.60;1.60;;;;;;;-0.25;78.32;102469.88;5362384;26;20034;-73
2021/03/20 03:32:10;;;;;;;1.85;1.83;;;;;;;-0.26;78.13;102486.19;5362284;26;20169;-71
2021/03/20 03:34:50;;;;;;;1.60;1.60;;;;;;;-0.29;78.04;102465.50;5364434;26;20177;-75
2021/03/20 03:37:44;;;;;;;1.60;1.60;;;;;;;-0.70;77.71;102385.50;5339375;26;20051;-77
2021/03/20 03:40:13;;;;;;;1.70;1.70;;;;;;;-0.27;77.38;102472.41;5361384;26;20109;-74
2021/03/20 03:42:38;;;;;;;1.60;1.60;;;;;;;-1.50;76.55;102279.00;5338576;26;20116;-75
2021/03/20 03:45:07;;;;;;;1.50;1.50;;;;;;;-0.43;76.07;102448.00;5340434;26;20043;-74
2021/03/20 03:47:32;;;;;;;2.10;2.00;;;;;;;-1.42;75.97;102276.59;5338048;26;20055;-74
2021/03/20 03:50:00;;;;;;;2.00;1.90;;;;;;;-0.69;76.60;102410.47;5340493;26;20051;-73
2021/03/20 03:52:25;;;;;;;1.80;1.77;;;;;;;-0.32;76.24;102486.03;5339479;26;20042;-71
2021/03/20 03:54:51;;;;;;;1.80;1.80;;;;;;;-0.35;76.43;102489.44;5338687;26;20066;-75
2021/03/20 03:57:22;;;;;;;1.60;1.60;;;;;;;-0.38;75.92;102489.41;5338901;26;20048;-72
2021/03/20 04:00:05;;;;;;;1.85;1.80;;;;;;;-0.41;75.46;102497.91;5357672;26;20039;-76
2021/03/20 04:02:46;;;;;;;1.65;1.65;;;;;;;-0.78;75.32;102436.03;5380727;26;20601;-73
2021/03/20 04:05:14;;;;;;;1.40;1.40;;;;;;;-0.48;75.43;102496.06;5363324;26;20086;-74
2021/03/20 04:07:51;;;;;;;1.70;1.70;;;;;;;-0.54;76.11;102502.75;5362723;26;20030;-75
2021/03/20 04:10:27;;;;;;;1.70;1.70;;;;;;;-0.65;76.78;102500.81;5379440;26;20491;-71
2021/03/20 04:13:13;;;;;;;1.60;1.60;;;;;;;-0.93;76.38;102467.50;5373321;26;20038;-74
2021/03/20 04:15:43;;;;;;;1.50;1.50;;;;;;;-0.75;76.62;102503.16;5340557;26;20026;-74
2021/03/20 04:18:14;;;;;;;1.50;1.50;;;;;;;-0.77;76.62;102509.97;5358709;26;20031;-74
2021/03/20 04:20:43;;;;;;;1.85;1.83;;;;;;;-0.89;77.14;102521.72;5393443;26;20038;-72
2021/03/20 04:23:12;;;;;;;1.50;1.50;;;;;;;-0.94;76.82;102525.00;5388897;26;20676;-73
2021/03/20 04:25:57;;;;;;;1.60;1.60;;;;;;;-2.33;76.93;102309.50;5357926;26;20050;-74
2021/03/20 04:28:44;;;;;;;1.60;1.60;;;;;;;-1.06;76.96;102529.03;5358076;26;20726;-75
2021/03/20 04:31:24;;;;;;;1.42;1.42;;;;;;;-1.08;77.11;102529.84;5376085;26;20030;-74
2021/03/20 04:34:09;;;;;;;1.60;1.60;;;;;;;-1.27;77.17;102487.28;5346186;26;20034;-74
2021/03/20 04:36:38;;;;;;;1.60;1.60;;;;;;;-1.18;76.90;102520.09;5340457;26;20038;-74
2021/03/20 04:39:05;;;;;;;1.65;1.65;;;;;;;-1.19;76.11;102521.81;5355148;26;20039;-72
2021/03/20 04:41:30;;;;;;;1.80;1.80;;;;;;;-1.37;76.25;102506.75;5339359;26;20039;-74
2021/03/20 04:43:56;;;;;;;1.60;1.60;;;;;;;-1.52;76.70;102496.06;5357877;26;20042;-74
2021/03/20 04:46:23;;;;;;;1.70;1.70;;;;;;;-1.46;76.95;102520.28;5362475;26;20042;-75
2021/03/20 04:49:16;;;;;;;1.67;1.67;;;;;;;-1.40;76.79;102522.16;5362990;26;20051;-74
2021/03/20 04:51:50;;;;;;;1.60;1.60;;;;;;;-1.82;76.81;102463.53;5380897;26;20050;-70
2021/03/20 04:54:18;;;;;;;1.60;1.60;;;;;;;-1.65;77.43;102512.88;5364753;26;20038;-73
2021/03/20 04:56:50;;;;;;;1.62;1.62;;;;;;;-2.01;78.10;102481.00;5361564;26;20043;-73
2021/03/20 04:59:39;;;;;;;;;;;;;;;-1.84;78.65;102525.25;5364318;26;20054;-74
2021/03/20 05:02:11;;;;;;;1.60;1.60;;;;;;;-1.92;78.36;102507.84;5345377;26;20003;-74
2021/03/20 05:04:37;;;;;;;1.50;1.50;;;;;;;-1.93;78.65;102514.66;5341249;26;20656;-75
2021/03/20 05:07:03;;;;;;;1.45;1.45;;;;;;;-1.98;78.80;102515.34;5340556;26;20667;-72
2021/03/20 05:09:28;;;;;;;1.40;1.40;;;;;;;-2.06;79.21;102512.59;5341142;26;20061;-73
2021/03/20 05:11:59;;;;;;;2.40;2.22;;;;;;;-2.22;79.27;102483.84;5339797;26;20617;-74
2021/03/20 05:14:39;;;;;;;1.50;1.50;;;;;;;-2.27;79.31;102494.81;5341564;26;20034;-73
2021/03/20 05:17:12;;;;;;;1.45;1.45;;;;;;;-2.25;79.05;102516.31;5339123;26;20057;-71
2021/03/20 05:19:37;;;;;;;;;;;;;;;-2.30;79.19;102510.16;5341616;26;20065;-75
2021/03/20 05:22:03;;;;;;;1.40;1.40;;;;;;;-2.53;79.31;102486.31;5356856;26;19950;-74
2021/03/20 05:24:35;;;;;;;1.70;1.70;;;;;;;-2.42;79.45;102513.25;5339425;26;20051;-74
2021/03/20 05:27:01;;;;;;;1.58;1.58;;;;;;;-2.56;79.57;102502.53;5358143;26;20649;-73
2021/03/20 05:29:27;;;;;;;1.60;1.60;;;;;;;-3.00;80.00;102430.06;5340586;26;20043;-73
2021/03/20 05:31:52;;;;;;;1.73;1.73;;;;;;;-2.46;79.99;102516.53;5338165;26;20053;-73
2021/03/20 05:34:25;;;;;;;1.50;1.50;;;;;;;-2.51;79.71;102515.50;5357805;26;20069;-74
2021/03/20 05:36:50;;;;;;;2.37;2.28;;;;;;;-2.70;79.71;102490.94;5339732;26;20161;-72
2021/03/20 05:39:16;;;;;;;1.60;1.60;;;;;;;-2.57;79.46;102523.91;5359742;26;20529;-74
2021/03/20 05:41:53;;;;;;;1.48;1.48;;;;;;;-2.56;79.50;102519.66;5364283;26;20053;-73
2021/03/20 05:44:33;;;;;;;1.55;1.55;;;;;;;-2.55;79.54;102527.38;5400245;26;20478;-74
2021/03/20 05:47:05;;;;;;;1.50;1.50;;;;;;;-2.42;79.15;102550.09;5363970;26;20046;-72
2021/03/20 05:49:54;;;;;;;;;;;;;;;-2.34;78.81;102540.06;5341231;26;20602;-75
2021/03/20 05:52:37;;;;;;;1.83;1.83;;;;;;;-2.27;78.02;102543.69;5333816;26;19964;-74
2021/03/20 05:55:18;;;;;;;1.40;1.40;;;;;;;-2.21;77.76;102546.44;5378300;26;20429;-75
2021/03/20 05:58:23;;;;;;;1.52;1.52;;;;;;;-2.18;77.32;102540.53;5376909;26;20614;-75
2021/03/20 06:01:24;;;;;;;1.50;1.50;;;;;;;-2.21;77.58;102546.44;5343358;26;20173;-74
2021/03/20 06:03:56;;;;;;;1.40;1.40;;;;;;;-2.21;77.29;102554.16;5323757;26;20043;-74
2021/03/20 06:06:46;;;;;;;1.50;1.50;;;;;;;-2.15;77.56;102554.31;5377779;26;20042;-74
2021/03/20 06:09:33;;;;;;;1.40;1.40;;;;;;;-1.98;77.37;102562.56;5373229;26;20549;-74
2021/03/20 06:12:14;;;;;;;1.50;1.50;;;;;;;-1.78;76.82;102568.28;5378060;26;20638;-74
2021/03/20 06:15:02;;;;;;;1.40;1.40;;;;;;;-1.57;76.46;102573.16;5380768;26;20098;-74
2021/03/20 06:17:35;;;;;;;1.70;1.70;;;;;;;-1.41;75.93;102569.31;5376960;26;20184;-75
2021/03/20 06:20:13;;;;;;;2.25;2.15;;;;;;;-1.30;75.81;102564.47;5358297;26;20050;-75
2021/03/20 06:22:56;;;;;;;1.60;1.60;;;;;;;-1.21;75.10;102570.72;5374082;26;20043;-74
2021/03/20 06:25:47;;;;;;;1.50;1.50;;;;;;;-1.14;74.32;102570.88;5358700;26;20039;-74
2021/03/20 06:28:13;;;;;;;1.60;1.60;;;;;;;-1.05;74.75;102563.41;5380899;26;20040;-75
2021/03/20 06:30:47;;;;;;;1.60;1.60;;;;;;;-0.96;74.47;102563.66;5362271;26;20030;-74
2021/03/20 06:33:28;;;;;;;1.50;1.50;;;;;;;-1.33;73.62;102503.44;5363449;26;20046;-74
2021/03/20 06:36:25;;;;;;;1.52;1.52;;;;;;;-1.04;72.80;102570.31;5362531;26;20039;-75
2021/03/20 06:39:01;;;;;;;1.65;1.60;;;;;;;-1.11;72.83;102560.66;5364848;26;20037;-74
2021/03/20 06:41:34;;;;;;;1.50;1.50;;;;;;;-1.14;73.01;102571.78;5363621;26;20120;-74
2021/03/20 06:44:04;;;;;;;1.50;1.50;;;;;;;-1.18;73.90;102582.84;5378257;26;20040;-74
2021/03/20 06:46:32;;;;;;;1.50;1.50;;;;;;;-1.22;73.51;102592.19;5341450;26;20042;-75
2021/03/20 06:48:57;;;;;;;1.55;1.55;;;;;;;-1.30;73.59;102578.22;5354715;26;20038;-74
2021/03/20 06:51:23;;;;;;;1.60;1.60;;;;;;;-1.22;73.93;102586.16;5358652;26;20057;-74
2021/03/20 06:53:56;;;;;;;1.60;1.60;;;;;;;-1.24;73.75;102570.66;5347085;26;20149;-74
2021/03/20 06:56:21;;;;;;;1.67;1.67;;;;;;;-1.04;73.57;102586.63;5339437;26;20043;-71
2021/03/20 06:58:46;;;;;;;1.70;1.70;;;;;;;-1.05;73.03;102565.97;5341500;26;20030;-75
2021/03/20 07:01:26;;;;;;;1.50;1.50;;;;;;;-0.83;73.48;102588.88;5339979;26;20112;-74
2021/03/20 07:04:39;;;;;;;1.50;1.50;;;;;;;-0.72;72.80;102591.75;5363888;26;20027;-71
2021/03/20 07:07:36;;;;;;;1.60;1.60;;;;;;;-0.57;71.98;102595.53;5365294;26;20051;-70
2021/03/20 07:10:01;;;;;;;1.70;1.70;;;;;;;-0.37;71.29;102606.34;5313314;26;20063;-70
2021/03/20 07:12:27;;;;;;;1.60;1.60;;;;;;;-0.36;69.71;102574.53;5320863;26;20107;-70
2021/03/20 07:14:56;;;;;;;2.12;2.03;;;;;;;-0.04;70.11;102596.78;5340553;26;20137;-70
2021/03/20 07:17:25;;;;;;;2.00;1.90;;;;;;;0.14;69.32;102610.91;5334889;26;20067;-71
2021/03/20 07:20:04;;;;;;;1.70;1.70;;;;;;;-0.21;67.59;102534.47;5354335;26;20480;-70
2021/03/20 07:22:35;;;;;;;1.70;1.70;;;;;;;-0.21;67.93;102508.66;5338080;26;20447;-70
2021/03/20 07:25:12;;;;;;;1.70;1.70;;;;;;;0.43;67.14;102618.44;5339163;26;20075;-70
2021/03/20 07:27:38;;;;;;;1.62;1.62;;;;;;;0.58;67.08;102609.28;5334206;26;20365;-71
2021/03/20 07:30:41;;;;;;;1.70;1.70;;;;;;;0.81;65.71;102626.94;5334857;26;20054;-70
2021/03/20 07:33:31;;;;;;;1.52;1.52;;;;;;;0.92;65.19;102620.28;5316070;26;20069;-70
2021/03/20 07:36:17;;;;;;;1.67;1.67;;;;;;;1.06;64.17;102629.97;5337048;26;20035;-70
2021/03/20 07:38:42;;;;;;;1.80;1.80;;;;;;;1.22;63.56;102628.53;5316646;26;20066;-70
2021/03/20 07:41:13;;;;;;;1.77;1.77;;;;;;;1.07;63.98;102624.00;5336144;26;20138;-70
2021/03/20 07:43:39;;;;;;;1.92;1.85;;;;;;;1.10;64.00;102600.75;5349408;26;20057;-71
2021/03/20 07:46:15;;;;;;;3.42;2.78;;;;;;;1.15;62.63;102627.59;5326613;26;20504;-67
2021/03/20 07:48:41;;;;;;;2.00;1.90;;;;;;;0.36;62.84;102491.75;5315445;26;20695;-70
2021/03/20 07:51:07;;;;;;;2.10;2.00;;;;;;;1.22;63.08;102625.97;5331227;26;20260;-68
2021/03/20 07:53:49;;;;;;;1.80;1.80;;;;;;;1.27;63.48;102629.50;5339363;26;20059;-69
2021/03/20 07:56:15;;;;;;;2.08;1.98;;;;;;;1.03;62.60;102625.63;5331511;26;20433;-68
2021/03/20 07:58:44;;;;;;;7.12;3.55;;;;;;;1.13;63.67;102622.38;5348526;26;20052;-68
2021/03/20 08:01:20;;;;;;;1.80;1.80;;;;;;;1.00;62.88;102633.31;5330873;26;20051;-68
2021/03/20 08:03:54;;;;;;;2.20;2.10;;;;;;;0.98;64.15;102628.16;5355838;26;20079;-65
2021/03/20 08:06:27;;;;;;;2.28;2.17;;;;;;;1.09;64.22;102636.09;5341187;26;20416;-66
2021/03/20 08:09:23;;;;;;;2.10;2.00;;;;;;;1.28;63.83;102632.09;5337135;26;20394;-66
2021/03/20 08:11:49;;;;;;;2.00;1.90;;;;;;;1.46;63.12;102633.28;5340644;26;20708;-66
2021/03/20 08:15:03;;;;;;;2.10;2.00;;;;;;;1.51;62.40;102635.09;5355409;26;20042;-67
2021/03/20 08:17:29;;;;;;;2.00;1.90;;;;;;;1.57;62.04;102629.16;5292966;27;20150;-68
2021/03/20 08:19:54;;;;;;;2.10;2.00;;;;;;;1.90;62.07;102641.72;5321399;26;20042;-70
2021/03/20 08:22:40;;;;;;;2.00;1.90;;;;;;;2.01;59.86;102636.75;5360330;26;20072;-69
2021/03/20 08:25:29;;;;;;;1.90;1.80;;;;;;;2.14;59.55;102636.03;5377463;26;20058;-66
2021/03/20 08:28:24;;;;;;;2.20;2.10;;;;;;;2.17;59.86;102625.75;5364743;26;20042;-67
2021/03/20 08:31:02;;;;;;;2.10;2.00;;;;;;;2.09;58.36;102639.44;5358544;26;20041;-65
2021/03/20 08:33:40;;;;;;;2.30;2.20;;;;;;;2.08;57.39;102641.13;5343097;26;20607;-67
2021/03/20 08:36:33;;;;;;;1.80;1.80;;;;;;;2.28;59.23;102641.41;5360449;26;20562;-67
2021/03/20 08:38:58;;;;;;;2.03;1.92;;;;;;;2.32;56.43;102638.00;5361382;26;20100;-70
2021/03/20 08:42:03;;;;;;;2.72;2.47;;;;;;;2.47;56.62;102646.87;5377845;26;20038;-67
2021/03/20 08:44:51;;;;;;;2.10;2.00;;;;;;;2.46;57.83;102648.56;5322106;26;20611;-67
2021/03/20 08:47:53;;;;;;;2.10;2.00;;;;;;;2.52;58.15;102645.19;5354730;26;20169;-68
2021/03/20 08:50:27;;;;;;;2.00;1.90;;;;;;;2.08;57.43;102614.38;5338387;26;20694;-68
2021/03/20 08:52:55;;;;;;;2.10;2.00;;;;;;;2.51;56.63;102648.66;5336010;26;20058;-68
2021/03/20 08:55:36;;;;;;;1.85;1.83;;;;;;;2.59;54.63;102652.19;5356505;26;20769;-68
2021/03/20 08:58:26;;;;;;;2.00;1.90;;;;;;;2.84;58.65;102648.16;5336924;26;20043;-68
2021/03/20 09:00:57;;;;;;;2.15;2.05;;;;;;;2.85;55.03;102647.31;5333954;26;20057;-68
2021/03/20 09:03:30;;;;;;;2.10;2.00;;;;;;;2.86;55.52;102650.78;5315873;26;20600;-68
2021/03/20 09:06:23;;;;;;;2.10;2.00;;;;;;;2.78;54.15;102664.50;5321388;26;20103;-70
2021/03/20 09:08:49;;;;;;;;;;;;;;;2.85;56.43;102657.69;5328698;26;20493;-69
2021/03/20 09:11:26;;;;;;;2.20;2.10;;;;;;;3.15;56.54;102664.06;5338331;26;19950;-68
2021/03/20 09:13:59;;;;;;;2.20;2.10;;;;;;;3.04;52.46;102663.94;5337617;26;20043;-69
2021/03/20 09:16:43;;;;;;;2.20;2.10;;;;;;;2.89;51.50;102656.00;5339175;26;20056;-68
2021/03/20 09:19:31;;;;;;;2.15;2.05;;;;;;;2.93;52.98;102658.66;5319536;26;20130;-66
2021/03/20 09:22:00;;;;;;;2.10;2.00;;;;;;;2.88;52.95;102660.31;5331597;26;20049;-68
2021/03/20 09:24:26;;;;;;;2.30;2.20;;;;;;;3.02;52.15;102664.78;5317342;26;20542;-66
2021/03/20 09:26:53;;;;;;;2.15;2.05;;;;;;;3.19;51.38;102661.50;5321864;26;20472;-66
2021/03/20 09:29:37;;;;;;;2.30;2.20;;;;;;;3.19;51.53;102658.91;5322021;26;20069;-66
2021/03/20 09:32:11;;;;;;;2.20;2.10;;;;;;;3.16;49.99;102619.97;5339690;26;20039;-66
2021/03/20 09:34:38;;;;;;;2.30;2.20;;;;;;;3.21;51.05;102664.13;5359693;26;20378;-66
2021/03/20 09:37:26;;;;;;;2.05;1.95;;;;;;;3.44;49.51;102653.09;5360647;26;20284;-67
2021/03/20 09:39:55;;;;;;;2.20;2.10;;;;;;;3.43;48.91;102656.53;5365616;26;20030;-66
2021/03/20 09:42:23;;;;;;;2.20;2.10;;;;;;;3.58;50.74;102648.88;5346087;26;20050;-67
2021/03/20 09:44:48;;;;;;;2.30;2.20;;;;;;;3.58;46.06;102641.09;5381145;26;20029;-67
2021/03/20 09:47:35;;;;;;;2.30;2.20;;;;;;;3.63;45.78;102642.03;5363845;26;20504;-66
2021/03/20 09:50:28;;;;;;;2.30;2.20;;;;;;;3.94;46.49;102647.44;5363379;26;20292;-66
2021/03/20 09:53:08;;;;;;;2.10;2.00;;;;;;;4.50;41.37;102646.00;5366721;26;20481;-67
2021/03/20 09:55:39;;;;;;;2.28;2.17;;;;;;;4.89;40.75;102641.81;5382722;26;20034;-67
2021/03/20 09:58:19;;;;;;;2.15;2.05;;;;;;;5.04;41.90;102646.19;5345237;26;20056;-66
2021/03/20 10:00:51;;;;;;;2.20;2.10;;;;;;;5.18;40.45;102639.28;5382033;26;20046;-67
2021/03/20 10:03:42;;;;;;;2.35;2.25;;;;;;;4.75;38.47;102639.16;5382043;26;20087;-67
2021/03/20 10:06:33;;;;;;;2.10;2.00;;;;;;;4.74;38.07;102642.63;5362354;26;20035;-66
2021/03/20 10:09:03;;;;;;;2.30;2.20;;;;;;;4.76;39.59;102633.09;5347726;26;20571;-66
2021/03/20 10:11:36;;;;;;;2.47;2.37;;;;;;;4.98;39.51;102631.44;5361679;26;20212;-66
2021/03/20 10:14:02;;;;;;;2.20;2.10;;;;;;;4.56;39.76;102599.22;5363227;26;20057;-66
2021/03/20 10:16:30;;;;;;;2.58;2.47;;;;;;;4.96;39.40;102628.81;5344012;26;20118;-68
2021/03/20 10:18:58;;;;;;;2.40;2.30;;;;;;;4.93;37.75;102573.31;5344300;26;20401;-67
2021/03/20 10:21:26;;;;;;;2.20;2.10;;;;;;;5.29;39.66;102610.66;5343930;26;20061;-67
2021/03/20 10:24:17;;;;;;;2.40;2.30;;;;;;;5.33;38.37;102613.28;5345077;26;20137;-68
2021/03/20 10:26:55;;;;;;;2.53;2.42;;;;;;;5.25;37.84;102598.50;5351702;26;20057;-68
2021/03/20 10:29:20;;;;;;;2.40;2.30;;;;;;;5.54;36.49;102604.56;5382726;26;20049;-68
2021/03/20 10:31:49;;;;;;;2.50;2.40;;;;;;;5.31;36.03;102606.31;5380943;26;20031;-68
2021/03/20 10:34:17;;;;;;;2.30;2.20;;;;;;;5.57;35.29;102606.31;5344531;26;20039;-67
2021/03/20 10:36:44;;;;;;;2.40;2.30;;;;;;;5.79;35.75;102601.94;5342644;26;20164;-67
2021/03/20 10:39:43;;;;;;;2.50;2.40;;;;;;;5.56;35.07;102591.56;5343665;26;20377;-67
2021/03/20 10:42:30;;;;;;;2.22;2.12;;;;;;;5.44;36.33;102595.03;5324630;26;20412;-67
2021/03/20 10:45:00;;;;;;;2.30;2.20;;;;;;;5.57;34.69;102590.69;5363925;26;20404;-67
2021/03/20 10:47:30;;;;;;;2.50;2.40;;;;;;;5.80;37.10;102588.06;5342179;26;20536;-67
2021/03/20 10:50:04;;;;;;;2.30;2.20;;;;;;;5.27;37.07;102438.88;5345573;26;20126;-67
2021/03/20 10:52:32;;;;;;;2.50;2.40;;;;;;;6.18;35.31;102584.50;5344257;26;20516;-67
2021/03/20 10:54:59;;;;;;;2.20;2.10;;;;;;;6.49;35.25;102579.16;5344591;26;20057;-67
2021/03/20 10:57:26;;;;;;;2.37;2.28;;;;;;;6.31;36.29;102572.28;5343613;26;20034;-67
2021/03/20 10:59:52;;;;;;;2.20;2.10;;;;;;;6.37;33.91;102573.16;5345213;26;20606;-67
2021/03/20 11:02:37;;;;;;;2.50;2.40;;;;;;;6.68;32.33;102575.59;5343515;26;20164;-66
2021/03/20 11:05:13;;;;;;;3.05;2.95;;;;;;;5.86;31.90;102575.00;5345316;26;20580;-67
2021/03/20 11:07:46;;;;;;;2.60;2.50;;;;;;;6.42;33.52;102573.13;5342567;26;20050;-67
2021/03/20 11:10:12;;;;;;;2.50;2.40;;;;;;;6.11;33.92;102572.34;5345196;26;20709;-67
2021/03/20 11:12:37;;;;;;;2.50;2.40;;;;;;;6.13;34.72;102552.37;5357089;26;20065;-67
2021/03/20 11:15:03;;;;;;;2.70;2.60;;;;;;;6.41;33.06;102565.28;5321473;26;20103;-67
2021/03/20 11:17:30;;;;;;;2.90;2.80;;;;;;;6.18;33.82;102576.69;5342804;26;20038;-67
2021/03/20 11:20:04;;;;;;;2.70;2.60;;;;;;;6.36;33.94;102568.78;5345466;26;20046;-67
2021/03/20 11:22:30;;;;;;;3.03;2.92;;;;;;;6.27;30.08;102576.63;5343494;26;20247;-67
2021/03/20 11:25:00;;;;;;;2.60;2.50;;;;;;;6.52;31.00;102569.59;5382584;26;20053;-67
2021/03/20 11:27:28;;;;;;;2.72;2.62;;;;;;;6.36;32.03;102539.25;5342099;26;20046;-66
2021/03/20 11:30:27;;;;;;;2.70;2.60;;;;;;;6.53;30.02;102570.44;5345145;26;20050;-67
2021/03/20 11:32:52;;;;;;;3.05;2.95;;;;;;;6.04;24.22;102513.31;5344763;26;20069;-67
2021/03/20 11:35:26;;;;;;;2.85;2.75;;;;;;;6.22;29.94;102568.00;5322363;26;20496;-67
2021/03/20 11:37:52;;;;;;;2.95;2.85;;;;;;;6.15;29.94;102555.84;5357797;26;20035;-67
2021/03/20 11:40:35;;;;;;;2.33;2.22;;;;;;;6.17;30.23;102559.31;5343202;26;20065;-66
2021/03/20 11:43:06;;;;;;;3.12;3.03;;;;;;;6.77;30.96;102565.06;5343759;26;20053;-66
2021/03/20 11:45:34;;;;;;;2.45;2.35;;;;;;;6.48;30.32;102540.94;5342387;26;20805;-67
2021/03/20 11:48:04;;;;;;;2.60;2.50;;;;;;;6.65;28.18;102557.31;5341993;26;20047;-68
2021/03/20 11:50:34;;;;;;;2.47;2.37;;;;;;;6.09;28.64;102543.69;5340109;26;20153;-67
2021/03/20 11:53:22;;;;;;;2.40;2.30;;;;;;;6.36;26.68;102550.53;5343092;26;20256;-65
2021/03/20 11:55:47;;;;;;;2.60;2.50;;;;;;;6.52;28.90;102546.09;5359972;26;20118;-68
2021/03/20 11:58:31;;;;;;;2.58;2.47;;;;;;;6.35;27.10;102527.06;5342522;26;20042;-67
2021/03/20 12:01:00;;;;;;;2.60;2.50;;;;;;;6.40;28.08;102548.78;5341405;26;20069;-68
2021/03/20 12:03:35;;;;;;;2.90;2.80;;;;;;;6.47;28.50;102533.97;5333730;26;20054;-68